createdAt,value
2017-09-01T00:01:55.424Z,15.30
2017-09-01T00:04:22.984Z,15.20
2017-09-01T00:06:50.506Z,15.20
2017-09-01T00:09:18.034Z,15.20
2017-09-01T00:11:46.354Z,15.20
2017-09-01T00:14:13.906Z,15.20
2017-09-01T00:16:41.434Z,15.20
2017-09-01T00:19:09.026Z,15.20
2017-09-01T00:21:36.560Z,15.20
2017-09-01T00:24:04.142Z,15.20
2017-09-01T00:26:31.701Z,15.10
2017-09-01T00:28:59.226Z,15.10
2017-09-01T00:31:27.537Z,15.10
2017-09-01T00:33:55.093Z,15.10
2017-09-01T00:36:22.661Z,15.10
2017-09-01T00:38:50.214Z,15.10
2017-09-01T00:41:17.762Z,15.10
2017-09-01T00:43:45.333Z,15.10
2017-09-01T00:46:12.857Z,15.10
2017-09-01T00:48:40.455Z,15.00
2017-09-01T00:51:07.982Z,15.00
2017-09-01T00:53:35.501Z,15.00
2017-09-01T00:56:03.049Z,15.00
2017-09-01T00:58:30.575Z,15.00
2017-09-01T01:00:58.146Z,15.00
2017-09-01T01:03:25.694Z,15.00
2017-09-01T01:05:53.880Z,15.00
2017-09-01T01:08:21.411Z,15.10
2017-09-01T01:10:48.962Z,15.10
2017-09-01T01:13:16.490Z,15.10
2017-09-01T01:15:44.338Z,15.10
2017-09-01T01:18:11.884Z,15.10
2017-09-01T01:20:39.451Z,15.00
2017-09-01T01:23:06.987Z,15.10
2017-09-01T01:25:34.562Z,15.10
2017-09-01T01:28:02.126Z,15.00
2017-09-01T01:30:29.650Z,15.00
2017-09-01T01:32:57.198Z,15.00
2017-09-01T01:35:24.821Z,15.00
2017-09-01T01:37:52.363Z,15.00
2017-09-01T01:40:19.925Z,15.00
2017-09-01T01:42:47.457Z,15.00
2017-09-01T01:45:14.989Z,15.00
2017-09-01T01:47:42.533Z,15.00
2017-09-01T01:50:10.057Z,15.00
2017-09-01T01:52:37.721Z,15.00
2017-09-01T01:55:05.281Z,15.00
2017-09-01T01:57:32.809Z,15.00
2017-09-01T02:00:00.345Z,14.90
2017-09-01T02:02:27.953Z,15.00
2017-09-01T02:04:55.520Z,14.90
2017-09-01T02:07:23.076Z,14.90
2017-09-01T02:09:50.637Z,14.90
2017-09-01T02:12:18.218Z,14.90
2017-09-01T02:14:45.761Z,14.90
2017-09-01T02:17:13.322Z,14.90
2017-09-01T02:19:40.889Z,14.90
2017-09-01T02:22:08.424Z,14.90
2017-09-01T02:24:35.998Z,14.90
2017-09-01T02:27:03.521Z,14.90
2017-09-01T02:29:31.049Z,14.90
2017-09-01T02:31:58.686Z,14.90
2017-09-01T02:34:26.237Z,14.90
2017-09-01T02:36:53.821Z,14.90
2017-09-01T02:39:21.458Z,14.90
2017-09-01T02:41:49.010Z,14.80
2017-09-01T02:44:16.575Z,14.80
2017-09-01T02:46:44.139Z,14.80
2017-09-01T02:49:11.685Z,14.80
2017-09-01T02:51:39.258Z,14.80
2017-09-01T02:54:06.811Z,14.80
2017-09-01T02:56:34.375Z,14.80
2017-09-01T02:59:01.893Z,14.80
2017-09-01T03:01:29.437Z,14.80
2017-09-01T03:03:57.061Z,14.80
2017-09-01T03:06:24.616Z,14.80
2017-09-01T03:08:52.167Z,14.80
2017-09-01T03:11:19.735Z,14.80
2017-09-01T03:13:47.534Z,14.70
2017-09-01T03:16:15.157Z,14.70
2017-09-01T03:18:42.680Z,14.70
2017-09-01T03:21:10.201Z,14.80
2017-09-01T03:23:37.810Z,14.70
2017-09-01T03:26:06.110Z,14.70
2017-09-01T03:28:33.638Z,14.70
2017-09-01T03:31:01.955Z,14.70
2017-09-01T03:33:29.486Z,14.70
2017-09-01T03:35:57.009Z,14.70
2017-09-01T03:38:24.554Z,14.70
2017-09-01T03:40:52.089Z,14.70
2017-09-01T03:43:20.577Z,14.70
2017-09-01T03:45:48.225Z,14.70
2017-09-01T03:48:15.789Z,14.70
2017-09-01T03:50:43.325Z,14.70
2017-09-01T03:53:10.869Z,14.70
2017-09-01T03:55:38.465Z,14.70
2017-09-01T03:58:06.029Z,14.70
2017-09-01T04:00:33.569Z,14.70
2017-09-01T04:03:01.091Z,14.70
2017-09-01T04:05:28.624Z,14.70
2017-09-01T04:07:56.172Z,14.70
2017-09-01T04:10:23.709Z,14.70
2017-09-01T04:12:51.234Z,14.70
2017-09-01T04:15:18.785Z,14.70
2017-09-01T04:17:46.314Z,14.70
2017-09-01T04:20:13.838Z,14.70
2017-09-01T04:22:41.414Z,14.70
2017-09-01T04:25:08.944Z,14.70
2017-09-01T04:27:36.475Z,14.70
2017-09-01T04:30:04.019Z,14.70
2017-09-01T04:32:31.558Z,14.70
2017-09-01T04:34:59.122Z,14.70
2017-09-01T04:37:26.670Z,14.70
2017-09-01T04:39:54.197Z,14.70
2017-09-01T04:42:21.809Z,14.70
2017-09-01T04:44:49.362Z,14.70
2017-09-01T04:47:16.886Z,14.70
2017-09-01T04:49:44.477Z,14.70
2017-09-01T04:52:12.037Z,14.70
2017-09-01T04:54:39.593Z,14.70
2017-09-01T04:57:07.749Z,14.70
2017-09-01T04:59:35.325Z,14.70
2017-09-01T05:02:02.893Z,14.70
2017-09-01T05:04:30.439Z,14.70
2017-09-01T05:06:57.989Z,14.70
2017-09-01T05:09:25.518Z,14.70
2017-09-01T05:11:53.045Z,14.70
2017-09-01T05:14:20.683Z,14.70
2017-09-01T05:16:48.213Z,14.80
2017-09-01T05:19:15.735Z,14.80
2017-09-01T05:21:43.277Z,14.80
2017-09-01T05:24:10.797Z,14.80
2017-09-01T05:26:38.317Z,14.80
2017-09-01T05:29:05.946Z,14.90
2017-09-01T05:31:33.464Z,14.90
2017-09-01T05:34:01.054Z,14.90
2017-09-01T05:36:28.592Z,15.00
2017-09-01T05:38:56.379Z,15.00
2017-09-01T05:41:23.898Z,15.00
2017-09-01T05:43:51.502Z,15.00
2017-09-01T05:46:19.033Z,15.00
2017-09-01T05:48:46.823Z,15.00
2017-09-01T05:51:14.370Z,15.00
2017-09-01T05:53:41.893Z,15.10
2017-09-01T05:56:09.517Z,15.00
2017-09-01T05:58:37.179Z,15.00
2017-09-01T06:01:04.702Z,15.00
2017-09-01T06:03:32.277Z,15.10
2017-09-01T06:05:59.850Z,15.10
2017-09-01T06:08:27.381Z,15.10
2017-09-01T06:10:54.969Z,15.10
2017-09-01T06:13:22.521Z,15.10
2017-09-01T06:15:50.085Z,15.10
2017-09-01T06:18:17.606Z,15.20
2017-09-01T06:20:45.144Z,15.20
2017-09-01T06:23:12.765Z,15.30
2017-09-01T06:25:40.419Z,15.30
2017-09-01T06:28:07.978Z,15.30
2017-09-01T06:30:35.502Z,15.40
2017-09-01T06:33:03.792Z,15.40
2017-09-01T06:35:31.378Z,15.40
2017-09-01T06:37:58.903Z,15.40
2017-09-01T06:40:26.507Z,15.50
2017-09-01T06:42:54.045Z,15.40
2017-09-01T06:45:21.568Z,15.40
2017-09-01T06:47:49.189Z,15.50
2017-09-01T06:50:16.738Z,15.50
2017-09-01T06:52:44.269Z,15.50
2017-09-01T06:55:11.869Z,15.50
2017-09-01T06:57:39.514Z,15.50
2017-09-01T07:00:07.034Z,15.50
2017-09-01T07:02:34.633Z,15.40
2017-09-01T07:05:02.195Z,15.50
2017-09-01T07:07:29.721Z,15.40
2017-09-01T07:09:57.329Z,15.40
2017-09-01T07:12:24.977Z,15.50
2017-09-01T07:14:52.500Z,15.50
2017-09-01T07:17:20.106Z,15.50
2017-09-01T07:19:47.636Z,15.60
2017-09-01T07:22:15.159Z,15.60
2017-09-01T07:24:42.770Z,15.60
2017-09-01T07:27:10.311Z,15.60
2017-09-01T07:29:37.904Z,15.60
2017-09-01T07:32:05.456Z,15.60
2017-09-01T07:34:32.998Z,15.50
2017-09-01T07:37:00.526Z,15.60
2017-09-01T07:39:28.046Z,15.60
2017-09-01T07:41:55.689Z,15.60
2017-09-01T07:44:23.254Z,15.60
2017-09-01T07:46:50.925Z,15.50
2017-09-01T07:49:18.477Z,15.60
2017-09-01T07:51:46.042Z,15.70
2017-09-01T07:54:13.693Z,15.80
2017-09-01T07:56:41.230Z,15.80
2017-09-01T07:59:08.749Z,15.80
2017-09-01T08:01:36.269Z,15.80
2017-09-01T08:04:15.827Z,15.90
2017-09-01T08:06:43.349Z,15.90
2017-09-01T08:09:10.882Z,15.90
2017-09-01T08:11:38.419Z,16.00
2017-09-01T08:14:05.945Z,16.00
2017-09-01T08:16:33.507Z,16.10
2017-09-01T08:19:01.041Z,16.10
2017-09-01T08:21:28.557Z,16.10
2017-09-01T08:23:56.090Z,16.00
2017-09-01T08:26:23.626Z,16.00
2017-09-01T08:28:51.406Z,15.90
2017-09-01T08:31:19.017Z,15.90
2017-09-01T08:33:46.642Z,15.90
2017-09-01T08:36:14.195Z,16.00
2017-09-01T08:38:41.754Z,16.00
2017-09-01T08:41:09.290Z,16.10
2017-09-01T08:43:36.816Z,16.00
2017-09-01T08:46:04.442Z,16.00
2017-09-01T08:48:31.982Z,16.00
2017-09-01T08:50:59.505Z,16.00
2017-09-01T08:53:27.016Z,16.00
2017-09-01T08:55:54.549Z,15.90
2017-09-01T08:58:22.126Z,15.80
2017-09-01T09:00:49.934Z,15.80
2017-09-01T09:03:17.469Z,15.90
2017-09-01T09:05:44.989Z,15.90
2017-09-01T09:08:12.570Z,15.90
2017-09-01T09:10:40.133Z,15.80
2017-09-01T09:13:07.650Z,15.90
2017-09-01T09:15:35.970Z,15.90
2017-09-01T09:18:03.509Z,15.90
2017-09-01T09:20:31.029Z,15.90
2017-09-01T09:22:58.544Z,16.00
2017-09-01T09:25:26.097Z,16.00
2017-09-01T09:27:54.372Z,16.00
2017-09-01T09:30:21.909Z,16.00
2017-09-01T09:32:49.448Z,16.00
2017-09-01T09:35:16.969Z,16.00
2017-09-01T09:37:44.492Z,16.00
2017-09-01T09:40:12.084Z,16.00
2017-09-01T09:42:39.634Z,16.00
2017-09-01T09:45:07.150Z,16.00
2017-09-01T09:47:34.691Z,16.00
2017-09-01T09:50:02.211Z,16.00
2017-09-01T09:52:29.729Z,16.00
2017-09-01T09:54:57.327Z,15.90
2017-09-01T09:57:24.890Z,15.90
2017-09-01T09:59:52.449Z,15.80
2017-09-01T10:02:19.986Z,15.80
2017-09-01T10:04:47.562Z,15.80
2017-09-01T10:07:15.124Z,16.00
2017-09-01T10:09:42.667Z,16.00
2017-09-01T10:12:10.246Z,16.00
2017-09-01T10:14:37.769Z,16.00
2017-09-01T10:17:05.367Z,16.00
2017-09-01T10:19:32.883Z,15.90
2017-09-01T10:22:00.405Z,15.90
2017-09-01T10:24:28.033Z,15.90
2017-09-01T10:26:55.625Z,15.90
2017-09-01T10:29:23.161Z,16.00
2017-09-01T10:31:50.725Z,16.00
2017-09-01T10:34:18.281Z,16.00
2017-09-01T10:36:45.841Z,16.00
2017-09-01T10:39:13.391Z,16.10
2017-09-01T10:41:40.909Z,16.10
2017-09-01T10:44:08.428Z,16.10
2017-09-01T10:46:35.975Z,16.20
2017-09-01T10:49:15.394Z,16.20
2017-09-01T10:51:54.871Z,16.20
2017-09-01T10:54:34.394Z,16.20
2017-09-01T10:57:13.890Z,16.00
2017-09-01T10:59:41.494Z,16.00
2017-09-01T11:02:09.052Z,16.00
2017-09-01T11:04:36.930Z,16.00
2017-09-01T11:07:04.458Z,16.10
2017-09-01T11:09:33.076Z,16.20
2017-09-01T11:12:00.616Z,16.40
2017-09-01T11:14:28.185Z,16.40
2017-09-01T11:16:55.746Z,16.50
2017-09-01T11:19:29.017Z,16.60
2017-09-01T11:22:02.105Z,16.60
2017-09-01T11:24:29.648Z,16.50
2017-09-01T11:26:57.345Z,16.50
2017-09-01T11:29:24.863Z,16.60
2017-09-01T11:31:52.401Z,16.50
2017-09-01T11:34:20.130Z,16.50
2017-09-01T11:36:47.683Z,16.60
2017-09-01T11:39:15.223Z,16.60
2017-09-01T11:41:42.737Z,16.70
2017-09-01T11:44:10.265Z,16.70
2017-09-01T11:46:37.797Z,16.80
2017-09-01T11:49:05.397Z,16.80
2017-09-01T11:51:32.915Z,17.00
2017-09-01T11:54:00.502Z,16.80
2017-09-01T11:56:28.067Z,16.80
2017-09-01T11:58:55.622Z,16.80
2017-09-01T12:01:23.182Z,17.00
2017-09-01T12:03:50.710Z,16.90
2017-09-01T12:06:18.306Z,17.00
2017-09-01T12:08:45.848Z,17.20
2017-09-01T12:11:13.423Z,17.20
2017-09-01T12:13:40.950Z,17.40
2017-09-01T12:16:08.558Z,17.30
2017-09-01T12:18:36.112Z,17.40
2017-09-01T12:21:03.669Z,17.50
2017-09-01T12:23:31.846Z,17.60
2017-09-01T12:25:59.401Z,17.80
2017-09-01T12:28:26.958Z,17.90
2017-09-01T12:30:54.513Z,18.00
2017-09-01T12:33:22.041Z,18.00
2017-09-01T12:35:49.563Z,18.10
2017-09-01T12:38:18.255Z,18.20
2017-09-01T12:40:45.884Z,18.30
2017-09-01T12:43:13.407Z,18.30
2017-09-01T12:45:40.951Z,18.50
2017-09-01T12:48:08.476Z,18.70
2017-09-01T12:50:35.993Z,18.70
2017-09-01T12:53:03.572Z,18.60
2017-09-01T12:55:31.094Z,18.70
2017-09-01T12:57:58.707Z,18.30
2017-09-01T13:00:26.286Z,18.30
2017-09-01T13:02:53.915Z,18.30
2017-09-01T13:05:21.434Z,18.10
2017-09-01T13:07:48.970Z,18.10
2017-09-01T13:10:16.494Z,17.70
2017-09-01T13:12:44.026Z,17.70
2017-09-01T13:15:11.610Z,17.80
2017-09-01T13:17:39.145Z,17.90
2017-09-01T13:20:06.722Z,17.90
2017-09-01T13:22:34.289Z,17.80
2017-09-01T13:25:01.817Z,17.80
2017-09-01T13:27:29.413Z,17.70
2017-09-01T13:29:56.957Z,17.70
2017-09-01T13:32:24.536Z,17.60
2017-09-01T13:34:52.089Z,17.60
2017-09-01T13:37:19.646Z,17.60
2017-09-01T13:39:47.205Z,17.60
2017-09-01T13:42:14.727Z,17.70
2017-09-01T13:44:42.326Z,17.80
2017-09-01T13:47:09.882Z,17.80
2017-09-01T13:49:37.399Z,17.80
2017-09-01T13:52:05.014Z,17.70
2017-09-01T13:54:32.538Z,17.70
2017-09-01T13:57:00.055Z,17.40
2017-09-01T13:59:27.682Z,17.00
2017-09-01T14:01:55.246Z,17.00
2017-09-01T14:04:22.777Z,16.90
2017-09-01T14:06:50.308Z,16.70
2017-09-01T14:09:17.834Z,16.70
2017-09-01T14:11:45.363Z,16.60
2017-09-01T14:14:12.947Z,16.60
2017-09-01T14:16:40.498Z,16.50
2017-09-01T14:19:08.022Z,16.40
2017-09-01T14:21:35.623Z,16.40
2017-09-01T14:24:03.153Z,16.30
2017-09-01T14:26:30.734Z,16.40
2017-09-01T14:28:58.290Z,16.40
2017-09-01T14:31:25.865Z,16.50
2017-09-01T14:33:53.417Z,16.50
2017-09-01T14:36:20.973Z,16.60
2017-09-01T14:38:48.533Z,16.70
2017-09-01T14:41:16.053Z,16.90
2017-09-01T14:43:43.641Z,16.80
2017-09-01T14:46:11.209Z,17.00
2017-09-01T14:48:38.728Z,17.00
2017-09-01T14:51:06.356Z,17.10
2017-09-01T14:53:33.901Z,17.20
2017-09-01T14:56:01.456Z,17.20
2017-09-01T14:58:28.994Z,17.50
2017-09-01T15:00:56.576Z,17.90
2017-09-01T15:03:24.105Z,18.60
2017-09-01T15:05:51.642Z,18.60
2017-09-01T15:08:19.250Z,18.70
2017-09-01T15:10:46.812Z,19.00
2017-09-01T15:13:14.350Z,19.30
2017-09-01T15:15:42.632Z,20.00
2017-09-01T15:18:10.208Z,19.90
2017-09-01T15:20:37.750Z,19.90
2017-09-01T15:23:06.197Z,19.70
2017-09-01T15:25:33.729Z,19.00
2017-09-01T15:28:01.270Z,18.70
2017-09-01T15:30:28.821Z,18.20
2017-09-01T15:32:56.398Z,17.90
2017-09-01T15:35:24.043Z,17.60
2017-09-01T15:37:51.556Z,17.30
2017-09-01T15:40:19.169Z,17.00
2017-09-01T15:42:46.712Z,17.00
2017-09-01T15:45:14.231Z,17.00
2017-09-01T15:47:41.858Z,17.00
2017-09-01T15:50:09.399Z,16.80
2017-09-01T15:52:36.923Z,16.80
2017-09-01T15:55:04.468Z,16.60
2017-09-01T15:57:32.906Z,16.50
2017-09-01T16:00:00.460Z,16.40
2017-09-01T16:02:28.214Z,16.40
2017-09-01T16:04:55.784Z,16.30
2017-09-01T16:07:23.350Z,16.20
2017-09-01T16:09:50.906Z,16.10
2017-09-01T16:12:18.442Z,16.00
2017-09-01T16:14:45.962Z,15.90
2017-09-01T16:17:13.487Z,15.80
2017-09-01T16:19:41.142Z,15.70
2017-09-01T16:22:08.662Z,15.70
2017-09-01T16:24:36.185Z,15.60
2017-09-01T16:27:03.721Z,15.60
2017-09-01T16:29:31.249Z,15.60
2017-09-01T16:31:58.940Z,15.60
2017-09-01T16:34:26.477Z,15.50
2017-09-01T16:36:54.065Z,15.60
2017-09-01T16:39:21.586Z,15.50
2017-09-01T16:41:49.121Z,15.40
2017-09-01T16:44:16.747Z,15.40
2017-09-01T16:46:44.265Z,15.30
2017-09-01T16:49:12.053Z,15.30
2017-09-01T16:51:39.569Z,15.20
2017-09-01T16:54:07.125Z,15.10
2017-09-01T16:56:34.664Z,15.10
2017-09-01T16:59:02.197Z,15.10
2017-09-01T17:01:29.717Z,15.10
2017-09-01T17:03:57.322Z,15.00
2017-09-01T17:06:24.878Z,15.00
2017-09-01T17:08:52.402Z,15.00
2017-09-01T17:11:19.994Z,15.00
2017-09-01T17:13:47.514Z,15.00
2017-09-01T17:16:15.114Z,15.00
2017-09-01T17:18:42.662Z,14.90
2017-09-01T17:21:10.236Z,15.00
2017-09-01T17:23:37.758Z,15.00
2017-09-01T17:26:05.359Z,15.00
2017-09-01T17:28:32.883Z,15.00
2017-09-01T17:31:00.405Z,14.90
2017-09-01T17:33:27.954Z,14.90
2017-09-01T17:35:55.489Z,14.90
2017-09-01T17:38:23.053Z,14.90
2017-09-01T17:40:50.609Z,14.80
2017-09-01T17:43:18.126Z,14.80
2017-09-01T17:45:45.669Z,14.70
2017-09-01T17:48:13.211Z,14.70
2017-09-01T17:50:40.731Z,14.60
2017-09-01T17:53:08.335Z,14.60
2017-09-01T17:55:35.968Z,14.60
2017-09-01T17:58:03.525Z,14.60
2017-09-01T18:00:31.094Z,14.50
2017-09-01T18:02:58.738Z,14.50
2017-09-01T18:05:26.304Z,14.50
2017-09-01T18:07:53.864Z,14.50
2017-09-01T18:10:21.422Z,14.40
2017-09-01T18:12:49.884Z,14.40
2017-09-01T18:15:17.414Z,14.40
2017-09-01T18:17:45.024Z,14.40
2017-09-01T18:20:12.557Z,14.40
2017-09-01T18:22:40.146Z,14.40
2017-09-01T18:25:07.694Z,14.40
2017-09-01T18:27:35.226Z,14.40
2017-09-01T18:30:02.750Z,14.40
2017-09-01T18:32:30.310Z,14.30
2017-09-01T18:34:57.915Z,14.30
2017-09-01T18:37:25.506Z,14.30
2017-09-01T18:39:53.053Z,14.20
2017-09-01T18:42:20.624Z,14.20
2017-09-01T18:44:48.150Z,14.20
2017-09-01T18:47:15.739Z,14.20
2017-09-01T18:49:43.261Z,14.20
2017-09-01T18:52:10.845Z,14.10
2017-09-01T18:54:38.395Z,14.10
2017-09-01T18:57:05.923Z,14.10
2017-09-01T18:59:33.537Z,14.10
2017-09-01T19:02:01.080Z,14.00
2017-09-01T19:04:28.654Z,14.00
2017-09-01T19:06:56.220Z,14.00
2017-09-01T19:09:23.884Z,14.00
2017-09-01T19:11:51.406Z,14.00
2017-09-01T19:14:18.936Z,14.00
2017-09-01T19:16:46.482Z,14.00
2017-09-01T19:19:14.018Z,14.00
2017-09-01T19:21:41.540Z,14.00
2017-09-01T19:24:09.862Z,14.00
2017-09-01T19:26:37.462Z,14.00
2017-09-01T19:29:05.006Z,14.00
2017-09-01T19:31:32.562Z,14.00
2017-09-01T19:34:00.222Z,14.00
2017-09-01T19:36:27.750Z,14.00
2017-09-01T19:38:55.296Z,14.00
2017-09-01T19:41:22.910Z,14.00
2017-09-01T19:43:50.429Z,14.00
2017-09-01T19:46:17.997Z,13.90
2017-09-01T19:48:45.573Z,13.90
2017-09-01T19:51:13.099Z,13.90
2017-09-01T19:53:40.641Z,13.80
2017-09-01T19:56:08.195Z,13.80
2017-09-01T19:58:36.496Z,13.70
2017-09-01T20:01:04.041Z,13.70
2017-09-01T20:03:31.645Z,13.70
2017-09-01T20:05:59.187Z,13.70
2017-09-01T20:08:26.728Z,13.70
2017-09-01T20:10:54.269Z,13.70
2017-09-01T20:13:21.795Z,13.60
2017-09-01T20:15:49.343Z,13.60
2017-09-01T20:18:16.887Z,13.60
2017-09-01T20:20:44.558Z,13.60
2017-09-01T20:23:12.201Z,13.60
2017-09-01T20:25:39.724Z,13.50
2017-09-01T20:28:07.342Z,13.50
2017-09-01T20:30:34.890Z,13.50
2017-09-01T20:33:02.440Z,13.50
2017-09-01T20:35:29.959Z,13.50
2017-09-01T20:37:57.516Z,13.50
2017-09-01T20:40:25.047Z,13.50
2017-09-01T20:42:52.561Z,13.50
2017-09-01T20:45:20.138Z,13.50
2017-09-01T20:47:47.701Z,13.50
2017-09-01T20:50:15.217Z,13.50
2017-09-01T20:52:42.757Z,13.50
2017-09-01T20:55:10.269Z,13.50
2017-09-01T20:57:37.829Z,13.50
2017-09-01T21:00:05.381Z,13.40
2017-09-01T21:02:32.903Z,13.40
2017-09-01T21:05:00.437Z,13.40
2017-09-01T21:07:27.982Z,13.40
2017-09-01T21:09:55.502Z,13.40
2017-09-01T21:12:23.017Z,13.40
2017-09-01T21:14:50.581Z,13.40
2017-09-01T21:17:18.102Z,13.40
2017-09-01T21:19:45.664Z,13.40
2017-09-01T21:22:13.207Z,13.40
2017-09-01T21:24:40.780Z,13.30
2017-09-01T21:27:08.297Z,13.40
2017-09-01T21:29:35.900Z,13.30
2017-09-01T21:32:03.423Z,13.30
2017-09-01T21:34:31.730Z,13.30
2017-09-01T21:36:59.272Z,13.30
2017-09-01T21:39:26.792Z,13.30
2017-09-01T21:41:54.318Z,13.30
2017-09-01T21:44:21.982Z,13.20
2017-09-01T21:46:49.501Z,13.20
2017-09-01T21:49:17.030Z,13.20
2017-09-01T21:51:44.657Z,13.20
2017-09-01T21:54:12.178Z,13.10
2017-09-01T21:56:39.766Z,13.10
2017-09-01T21:59:07.309Z,13.10
2017-09-01T22:01:34.821Z,13.10
2017-09-01T22:04:02.341Z,13.00
2017-09-01T22:06:29.877Z,13.00
2017-09-01T22:08:57.403Z,13.00
2017-09-01T22:11:25.025Z,13.00
2017-09-01T22:13:52.581Z,13.00
2017-09-01T22:16:20.141Z,13.00
2017-09-01T22:18:47.657Z,13.00
2017-09-01T22:21:15.266Z,13.00
2017-09-01T22:23:42.791Z,13.00
2017-09-01T22:26:10.315Z,13.00
2017-09-01T22:28:37.947Z,12.90
2017-09-01T22:31:05.502Z,12.90
2017-09-01T22:33:33.027Z,12.80
2017-09-01T22:36:00.564Z,12.80
2017-09-01T22:38:28.086Z,12.70
2017-09-01T22:40:55.638Z,12.60
2017-09-01T22:43:23.186Z,12.60
2017-09-01T22:45:50.764Z,12.50
2017-09-01T22:48:18.294Z,12.50
2017-09-01T22:50:45.849Z,12.50
2017-09-01T22:53:13.438Z,12.40
2017-09-01T22:55:40.958Z,12.50
2017-09-01T22:58:09.262Z,12.30
2017-09-01T23:00:36.829Z,12.30
2017-09-01T23:03:04.333Z,12.30
2017-09-01T23:05:31.958Z,12.30
2017-09-01T23:07:59.477Z,12.40
2017-09-01T23:10:27.066Z,12.40
2017-09-01T23:12:54.608Z,12.30
2017-09-01T23:15:22.189Z,12.30
2017-09-01T23:17:49.726Z,12.30
2017-09-01T23:20:17.271Z,12.30
2017-09-01T23:22:44.864Z,12.30
2017-09-01T23:25:12.430Z,12.30
2017-09-01T23:27:39.984Z,12.30
2017-09-01T23:30:07.508Z,12.20
2017-09-01T23:32:35.025Z,12.20
2017-09-01T23:35:02.570Z,12.20
2017-09-01T23:37:30.086Z,12.10
2017-09-01T23:39:57.686Z,12.10
2017-09-01T23:42:25.245Z,12.10
2017-09-01T23:44:52.762Z,12.00
2017-09-01T23:47:20.286Z,12.00
2017-09-01T23:49:47.933Z,12.00
2017-09-01T23:52:15.458Z,12.00
2017-09-01T23:54:43.047Z,12.00
2017-09-01T23:57:10.589Z,11.90
2017-09-01T23:59:38.162Z,11.90
